sensor_id;sensor_type;location;lat;lon;timestamp;pressure;altitude;pressure_sealevel;temperature;humidity
27358;BME280;14831;50.474;7.616;2022-12-26T00:03:02;97740;;;10.5;85.9
27358;BME280;14831;50.474;7.616;2022-12-26T00:08:02;97750;;;10.5;86.1
27358;BME280;14831;50.474;7.616;2022-12-26T00:13:02;97730;;;10.5;86.2
27358;BME280;14831;50.474;7.616;2022-12-26T00:18:02;97740;;;10.5;86.1
27358;BME280;14831;50.474;7.616;2022-12-26T00:23:02;97740;;;10.5;86.1
27358;BME280;14831;50.474;7.616;2022-12-26T00:28:02;97730;;;10.5;86.1
27358;BME280;14831;50.474;7.616;2022-12-26T00:33:02;97730;;;10.5;86.1
27358;BME280;14831;50.474;7.616;2022-12-26T00:38:02;97740;;;10.5;86.2
27358;BME280;14831;50.474;7.616;2022-12-26T00:43:02;97740;;;10.5;86.1
27358;BME280;14831;50.474;7.616;2022-12-26T00:48:02;97740;;;10.5;86.3
27358;BME280;14831;50.474;7.616;2022-12-26T00:53:02;97740;;;10.4;86.5
27358;BME280;14831;50.474;7.616;2022-12-26T00:58:03;97740;;;10.4;86.6
27358;BME280;14831;50.474;7.616;2022-12-26T01:03:02;97740;;;10.4;86.6
27358;BME280;14831;50.474;7.616;2022-12-26T01:08:02;97740;;;10.4;86.7
27358;BME280;14831;50.474;7.616;2022-12-26T01:13:02;97740;;;10.4;86.8
27358;BME280;14831;50.474;7.616;2022-12-26T01:18:03;97750;;;10.4;86.6
27358;BME280;14831;50.474;7.616;2022-12-26T01:23:02;97730;;;10.5;86.4
27358;BME280;14831;50.474;7.616;2022-12-26T01:28:02;97750;;;10.5;86.4
27358;BME280;14831;50.474;7.616;2022-12-26T01:33:02;97770;;;10.5;86.0
27358;BME280;14831;50.474;7.616;2022-12-26T01:38:02;97770;;;10.5;86.2
27358;BME280;14831;50.474;7.616;2022-12-26T01:43:02;97780;;;10.5;86.0
27358;BME280;14831;50.474;7.616;2022-12-26T01:48:02;97780;;;10.5;86.0
27358;BME280;14831;50.474;7.616;2022-12-26T01:53:03;97790;;;10.5;85.8
27358;BME280;14831;50.474;7.616;2022-12-26T01:58:03;97790;;;10.5;85.9
27358;BME280;14831;50.474;7.616;2022-12-26T02:03:02;97800;;;10.5;86.1
27358;BME280;14831;50.474;7.616;2022-12-26T02:08:03;97780;;;10.5;86.1
27358;BME280;14831;50.474;7.616;2022-12-26T02:13:02;97780;;;10.4;86.0
27358;BME280;14831;50.474;7.616;2022-12-26T02:18:02;97780;;;10.4;86.0
27358;BME280;14831;50.474;7.616;2022-12-26T02:23:08;97790;;;10.4;86.0
27358;BME280;14831;50.474;7.616;2022-12-26T02:28:08;97800;;;10.4;86.0
27358;BME280;14831;50.474;7.616;2022-12-26T02:33:05;97810;;;10.4;86.2
27358;BME280;14831;50.474;7.616;2022-12-26T02:38:04;97820;;;10.4;86.1
27358;BME280;14831;50.474;7.616;2022-12-26T02:43:04;97820;;;10.5;85.3
27358;BME280;14831;50.474;7.616;2022-12-26T02:48:04;97810;;;10.5;85.2
27358;BME280;14831;50.474;7.616;2022-12-26T02:53:03;97810;;;10.4;85.5
27358;BME280;14831;50.474;7.616;2022-12-26T02:58:03;97810;;;10.4;85.7
27358;BME280;14831;50.474;7.616;2022-12-26T03:03:02;97810;;;10.4;85.5
27358;BME280;14831;50.474;7.616;2022-12-26T03:08:02;97800;;;10.3;85.7
27358;BME280;14831;50.474;7.616;2022-12-26T03:13:03;97800;;;10.3;85.9
27358;BME280;14831;50.474;7.616;2022-12-26T03:18:02;97800;;;10.3;85.9
27358;BME280;14831;50.474;7.616;2022-12-26T03:23:03;97780;;;10.2;86.0
27358;BME280;14831;50.474;7.616;2022-12-26T03:28:02;97770;;;10.2;86.1
27358;BME280;14831;50.474;7.616;2022-12-26T03:33:02;97770;;;10.1;86.2
27358;BME280;14831;50.474;7.616;2022-12-26T03:38:03;97770;;;10.1;86.6
27358;BME280;14831;50.474;7.616;2022-12-26T03:43:04;97780;;;10.1;86.8
27358;BME280;14831;50.474;7.616;2022-12-26T03:48:04;97790;;;10.1;86.6
27358;BME280;14831;50.474;7.616;2022-12-26T03:53:04;97800;;;10.2;86.4
27358;BME280;14831;50.474;7.616;2022-12-26T03:58:04;97790;;;10.3;86.3
27358;BME280;14831;50.474;7.616;2022-12-26T04:03:04;97800;;;10.3;85.9
27358;BME280;14831;50.474;7.616;2022-12-26T04:08:04;97800;;;10.3;86.0
27358;BME280;14831;50.474;7.616;2022-12-26T04:13:02;97790;;;10.4;85.6
27358;BME280;14831;50.474;7.616;2022-12-26T04:18:03;97800;;;10.4;85.8
27358;BME280;14831;50.474;7.616;2022-12-26T04:23:02;97810;;;10.3;85.9
27358;BME280;14831;50.474;7.616;2022-12-26T04:28:02;97790;;;10.4;85.7
27358;BME280;14831;50.474;7.616;2022-12-26T04:33:03;97790;;;10.4;85.4
27358;BME280;14831;50.474;7.616;2022-12-26T04:38:02;97810;;;10.4;85.5
27358;BME280;14831;50.474;7.616;2022-12-26T04:43:02;97780;;;10.3;85.9
27358;BME280;14831;50.474;7.616;2022-12-26T04:48:02;97780;;;10.3;85.2
27358;BME280;14831;50.474;7.616;2022-12-26T04:53:02;97800;;;10.3;85.5
27358;BME280;14831;50.474;7.616;2022-12-26T04:58:02;97810;;;10.3;85.9
27358;BME280;14831;50.474;7.616;2022-12-26T05:03:02;97820;;;10.2;85.7
27358;BME280;14831;50.474;7.616;2022-12-26T05:08:02;97810;;;10.3;85.7
27358;BME280;14831;50.474;7.616;2022-12-26T05:13:02;97800;;;10.3;85.7
27358;BME280;14831;50.474;7.616;2022-12-26T05:18:02;97800;;;10.2;85.9
27358;BME280;14831;50.474;7.616;2022-12-26T05:23:02;97820;;;10.2;85.9
27358;BME280;14831;50.474;7.616;2022-12-26T05:28:02;97810;;;10.2;86.0
27358;BME280;14831;50.474;7.616;2022-12-26T05:33:02;97820;;;10.2;85.9
27358;BME280;14831;50.474;7.616;2022-12-26T05:38:02;97810;;;10.2;86.0
27358;BME280;14831;50.474;7.616;2022-12-26T05:43:02;97820;;;10.2;86.2
27358;BME280;14831;50.474;7.616;2022-12-26T05:48:02;97820;;;10.2;86.1
27358;BME280;14831;50.474;7.616;2022-12-26T05:53:02;97820;;;10.2;86.1
27358;BME280;14831;50.474;7.616;2022-12-26T05:58:02;97800;;;10.2;86.1
27358;BME280;14831;50.474;7.616;2022-12-26T06:03:02;97810;;;10.1;86.3
27358;BME280;14831;50.474;7.616;2022-12-26T06:08:02;97820;;;10.1;86.1
27358;BME280;14831;50.474;7.616;2022-12-26T06:13:02;97820;;;10.2;86.0
27358;BME280;14831;50.474;7.616;2022-12-26T06:18:02;97810;;;10.2;85.8
27358;BME280;14831;50.474;7.616;2022-12-26T06:23:02;97810;;;10.2;85.6
27358;BME280;14831;50.474;7.616;2022-12-26T06:28:02;97810;;;10.2;85.7
27358;BME280;14831;50.474;7.616;2022-12-26T06:33:02;97810;;;10.1;85.7
27358;BME280;14831;50.474;7.616;2022-12-26T06:38:02;97830;;;10.1;85.8
27358;BME280;14831;50.474;7.616;2022-12-26T06:43:02;97820;;;10.1;85.5
27358;BME280;14831;50.474;7.616;2022-12-26T06:48:02;97830;;;10.1;85.5
27358;BME280;14831;50.474;7.616;2022-12-26T06:53:02;97840;;;10.1;85.5
27358;BME280;14831;50.474;7.616;2022-12-26T06:58:02;97840;;;10.1;85.7
27358;BME280;14831;50.474;7.616;2022-12-26T07:03:02;97840;;;10.0;86.1
27358;BME280;14831;50.474;7.616;2022-12-26T07:08:02;97840;;;9.9;86.6
27358;BME280;14831;50.474;7.616;2022-12-26T07:13:02;97840;;;9.9;86.8
27358;BME280;14831;50.474;7.616;2022-12-26T07:18:02;97840;;;9.8;86.1
27358;BME280;14831;50.474;7.616;2022-12-26T07:23:02;97840;;;9.8;85.3
27358;BME280;14831;50.474;7.616;2022-12-26T07:28:02;97850;;;9.8;85.1
27358;BME280;14831;50.474;7.616;2022-12-26T07:33:02;97860;;;9.8;84.6
27358;BME280;14831;50.474;7.616;2022-12-26T07:38:02;97880;;;9.7;84.8
27358;BME280;14831;50.474;7.616;2022-12-26T07:43:02;97890;;;9.7;83.9
27358;BME280;14831;50.474;7.616;2022-12-26T07:48:02;97900;;;9.6;83.9
27358;BME280;14831;50.474;7.616;2022-12-26T07:53:02;97890;;;9.6;83.7
27358;BME280;14831;50.474;7.616;2022-12-26T07:58:02;97880;;;9.6;82.9
27358;BME280;14831;50.474;7.616;2022-12-26T08:03:02;97870;;;9.7;81.7
27358;BME280;14831;50.474;7.616;2022-12-26T08:08:02;97860;;;9.7;82.0
27358;BME280;14831;50.474;7.616;2022-12-26T08:13:02;97880;;;9.8;82.0
27358;BME280;14831;50.474;7.616;2022-12-26T08:18:02;97890;;;9.7;82.3
27358;BME280;14831;50.474;7.616;2022-12-26T08:23:02;97920;;;9.7;82.4
27358;BME280;14831;50.474;7.616;2022-12-26T08:28:02;97920;;;9.6;82.8
27358;BME280;14831;50.474;7.616;2022-12-26T08:33:02;97940;;;9.6;83.6
27358;BME280;14831;50.474;7.616;2022-12-26T08:38:02;97930;;;9.5;84.5
27358;BME280;14831;50.474;7.616;2022-12-26T08:43:02;97920;;;9.5;85.2
27358;BME280;14831;50.474;7.616;2022-12-26T08:48:02;97930;;;9.5;86.1
27358;BME280;14831;50.474;7.616;2022-12-26T08:53:02;97920;;;9.5;86.5
27358;BME280;14831;50.474;7.616;2022-12-26T08:58:02;97940;;;9.6;86.4
27358;BME280;14831;50.474;7.616;2022-12-26T09:03:02;97950;;;9.6;86.3
27358;BME280;14831;50.474;7.616;2022-12-26T09:08:02;97970;;;9.6;86.5
27358;BME280;14831;50.474;7.616;2022-12-26T09:13:02;97960;;;9.5;87.1
27358;BME280;14831;50.474;7.616;2022-12-26T09:18:02;97960;;;9.5;87.8
27358;BME280;14831;50.474;7.616;2022-12-26T09:23:02;97980;;;9.5;87.9
27358;BME280;14831;50.474;7.616;2022-12-26T09:28:02;97980;;;9.6;88.1
27358;BME280;14831;50.474;7.616;2022-12-26T09:33:02;97980;;;9.6;88.3
27358;BME280;14831;50.474;7.616;2022-12-26T09:38:02;97990;;;9.7;88.7
27358;BME280;14831;50.474;7.616;2022-12-26T09:43:05;97990;;;9.7;88.6
27358;BME280;14831;50.474;7.616;2022-12-26T09:48:03;97990;;;9.7;89.0
27358;BME280;14831;50.474;7.616;2022-12-26T09:53:03;97990;;;9.8;88.9
27358;BME280;14831;50.474;7.616;2022-12-26T09:58:03;97990;;;9.8;88.3
27358;BME280;14831;50.474;7.616;2022-12-26T10:03:02;97990;;;9.9;88.0
27358;BME280;14831;50.474;7.616;2022-12-26T10:08:04;97990;;;10.0;87.7
27358;BME280;14831;50.474;7.616;2022-12-26T10:13:04;97990;;;10.1;87.2
27358;BME280;14831;50.474;7.616;2022-12-26T10:18:05;97990;;;10.2;86.6
27358;BME280;14831;50.474;7.616;2022-12-26T10:23:21;97990;;;10.3;85.6
27358;BME280;14831;50.474;7.616;2022-12-26T10:28:02;97990;;;10.4;84.6
27358;BME280;14831;50.474;7.616;2022-12-26T10:33:03;97980;;;10.5;83.2
27358;BME280;14831;50.474;7.616;2022-12-26T10:38:03;97980;;;10.7;82.8
27358;BME280;14831;50.474;7.616;2022-12-26T10:43:07;97960;;;10.7;82.0
27358;BME280;14831;50.474;7.616;2022-12-26T10:48:02;97990;;;10.8;81.6
27358;BME280;14831;50.474;7.616;2022-12-26T10:53:04;97980;;;10.9;80.9
27358;BME280;14831;50.474;7.616;2022-12-26T10:58:05;97990;;;10.9;81.3
27358;BME280;14831;50.474;7.616;2022-12-26T11:03:03;98000;;;10.8;80.9
27358;BME280;14831;50.474;7.616;2022-12-26T11:08:06;98000;;;10.8;79.0
27358;BME280;14831;50.474;7.616;2022-12-26T11:13:03;98020;;;10.8;78.9
27358;BME280;14831;50.474;7.616;2022-12-26T11:18:14;98020;;;10.8;78.8
27358;BME280;14831;50.474;7.616;2022-12-26T11:23:20;98030;;;10.7;80.1
27358;BME280;14831;50.474;7.616;2022-12-26T11:28:02;98030;;;10.8;79.7
27358;BME280;14831;50.474;7.616;2022-12-26T11:33:03;98020;;;10.7;79.1
27358;BME280;14831;50.474;7.616;2022-12-26T11:38:02;98010;;;10.8;77.5
27358;BME280;14831;50.474;7.616;2022-12-26T11:43:03;98020;;;10.8;76.2
27358;BME280;14831;50.474;7.616;2022-12-26T11:48:02;98020;;;10.7;75.5
27358;BME280;14831;50.474;7.616;2022-12-26T11:53:03;98010;;;10.7;73.8
27358;BME280;14831;50.474;7.616;2022-12-26T11:58:14;98020;;;10.7;75.2
27358;BME280;14831;50.474;7.616;2022-12-26T12:03:02;98000;;;10.7;72.5
27358;BME280;14831;50.474;7.616;2022-12-26T12:08:07;97990;;;10.7;73.1
27358;BME280;14831;50.474;7.616;2022-12-26T12:13:03;97980;;;10.8;73.3
27358;BME280;14831;50.474;7.616;2022-12-26T12:18:04;97980;;;10.9;74.1
27358;BME280;14831;50.474;7.616;2022-12-26T12:23:06;97990;;;10.9;73.4
27358;BME280;14831;50.474;7.616;2022-12-26T12:28:05;97990;;;10.8;73.6
27358;BME280;14831;50.474;7.616;2022-12-26T12:33:09;97990;;;10.8;71.8
27358;BME280;14831;50.474;7.616;2022-12-26T12:38:09;97990;;;10.8;72.5
27358;BME280;14831;50.474;7.616;2022-12-26T12:43:05;97980;;;10.8;72.1
27358;BME280;14831;50.474;7.616;2022-12-26T12:48:07;97980;;;10.8;72.5
27358;BME280;14831;50.474;7.616;2022-12-26T12:53:04;97970;;;10.7;74.0
27358;BME280;14831;50.474;7.616;2022-12-26T12:58:04;97970;;;10.6;74.4
27358;BME280;14831;50.474;7.616;2022-12-26T13:03:03;97980;;;10.6;74.0
27358;BME280;14831;50.474;7.616;2022-12-26T13:08:03;97970;;;10.5;74.6
27358;BME280;14831;50.474;7.616;2022-12-26T13:13:05;97990;;;10.1;77.0
27358;BME280;14831;50.474;7.616;2022-12-26T13:18:03;97980;;;9.7;79.8
27358;BME280;14831;50.474;7.616;2022-12-26T13:23:03;97990;;;9.3;82.7
27358;BME280;14831;50.474;7.616;2022-12-26T13:28:03;97980;;;9.1;83.9
27358;BME280;14831;50.474;7.616;2022-12-26T13:33:02;97990;;;9.0;84.7
27358;BME280;14831;50.474;7.616;2022-12-26T13:38:02;97990;;;8.9;83.0
27358;BME280;14831;50.474;7.616;2022-12-26T13:43:05;97980;;;9.0;82.8
27358;BME280;14831;50.474;7.616;2022-12-26T13:48:02;97990;;;9.0;82.6
27358;BME280;14831;50.474;7.616;2022-12-26T13:53:02;98000;;;8.9;83.6
27358;BME280;14831;50.474;7.616;2022-12-26T13:58:08;98000;;;8.9;83.0
27358;BME280;14831;50.474;7.616;2022-12-26T14:03:25;97990;;;9.0;82.2
27358;BME280;14831;50.474;7.616;2022-12-26T14:08:03;98010;;;9.2;78.9
27358;BME280;14831;50.474;7.616;2022-12-26T14:13:03;98010;;;9.4;76.5
27358;BME280;14831;50.474;7.616;2022-12-26T14:18:06;98000;;;9.5;76.5
27358;BME280;14831;50.474;7.616;2022-12-26T14:23:05;98000;;;9.5;76.5
27358;BME280;14831;50.474;7.616;2022-12-26T14:28:09;98000;;;9.4;77.5
27358;BME280;14831;50.474;7.616;2022-12-26T14:33:05;98000;;;9.4;78.2
27358;BME280;14831;50.474;7.616;2022-12-26T14:38:08;97980;;;9.3;77.5
27358;BME280;14831;50.474;7.616;2022-12-26T14:43:08;97980;;;9.2;77.4
27358;BME280;14831;50.474;7.616;2022-12-26T14:48:02;97980;;;9.3;77.2
27358;BME280;14831;50.474;7.616;2022-12-26T14:53:26;98000;;;9.2;77.2
27358;BME280;14831;50.474;7.616;2022-12-26T14:58:18;97990;;;9.2;76.6
27358;BME280;14831;50.474;7.616;2022-12-26T15:03:15;97990;;;9.3;75.8
27358;BME280;14831;50.474;7.616;2022-12-26T15:13:08;98000;;;9.3;75.1
27358;BME280;14831;50.474;7.616;2022-12-26T15:18:07;98060;;;9.2;76.5
27358;BME280;14831;50.474;7.616;2022-12-26T15:23:11;98060;;;8.6;80.8
27358;BME280;14831;50.474;7.616;2022-12-26T15:28:08;98070;;;7.6;83.6
27358;BME280;14831;50.474;7.616;2022-12-26T15:33:03;98070;;;7.1;87.9
27358;BME280;14831;50.474;7.616;2022-12-26T15:38:06;98080;;;6.9;88.3
27358;BME280;14831;50.474;7.616;2022-12-26T15:43:18;98090;;;6.5;91.0
27358;BME280;14831;50.474;7.616;2022-12-26T15:48:03;98070;;;6.4;91.8
27358;BME280;14831;50.474;7.616;2022-12-26T15:53:08;98060;;;6.4;91.0
27358;BME280;14831;50.474;7.616;2022-12-26T15:58:05;98070;;;6.4;92.0
27358;BME280;14831;50.474;7.616;2022-12-26T16:03:06;98070;;;6.3;91.6
27358;BME280;14831;50.474;7.616;2022-12-26T16:08:04;98090;;;6.3;92.7
27358;BME280;14831;50.474;7.616;2022-12-26T16:13:03;98120;;;6.2;92.4
27358;BME280;14831;50.474;7.616;2022-12-26T16:18:19;98120;;;6.3;91.6
27358;BME280;14831;50.474;7.616;2022-12-26T16:23:02;98120;;;6.3;91.7
27358;BME280;14831;50.474;7.616;2022-12-26T16:28:02;98120;;;6.3;92.7
27358;BME280;14831;50.474;7.616;2022-12-26T16:33:02;98120;;;6.2;93.2
27358;BME280;14831;50.474;7.616;2022-12-26T16:38:03;98140;;;6.2;93.2
27358;BME280;14831;50.474;7.616;2022-12-26T16:43:03;98150;;;6.2;93.9
27358;BME280;14831;50.474;7.616;2022-12-26T16:48:04;98160;;;6.1;94.8
27358;BME280;14831;50.474;7.616;2022-12-26T16:53:08;98160;;;6.1;95.4
27358;BME280;14831;50.474;7.616;2022-12-26T16:58:03;98180;;;6.0;93.7
27358;BME280;14831;50.474;7.616;2022-12-26T17:03:02;98180;;;5.8;91.0
27358;BME280;14831;50.474;7.616;2022-12-26T17:08:02;98190;;;5.7;90.4
27358;BME280;14831;50.474;7.616;2022-12-26T17:13:02;98200;;;5.6;89.2
27358;BME280;14831;50.474;7.616;2022-12-26T17:18:27;98190;;;5.5;89.1
27358;BME280;14831;50.474;7.616;2022-12-26T17:23:29;98210;;;5.4;89.9
27358;BME280;14831;50.474;7.616;2022-12-26T17:28:33;98200;;;5.3;90.3
27358;BME280;14831;50.474;7.616;2022-12-26T17:33:02;98200;;;5.5;88.6
27358;BME280;14831;50.474;7.616;2022-12-26T17:38:03;98220;;;5.5;86.7
27358;BME280;14831;50.474;7.616;2022-12-26T17:43:04;98220;;;5.5;87.4
27358;BME280;14831;50.474;7.616;2022-12-26T17:48:02;98240;;;5.4;89.4
27358;BME280;14831;50.474;7.616;2022-12-26T17:53:03;98230;;;5.4;87.9
27358;BME280;14831;50.474;7.616;2022-12-26T17:58:02;98240;;;5.3;89.0
27358;BME280;14831;50.474;7.616;2022-12-26T18:03:02;98240;;;5.2;89.5
27358;BME280;14831;50.474;7.616;2022-12-26T18:08:02;98250;;;5.1;88.4
27358;BME280;14831;50.474;7.616;2022-12-26T18:13:02;98250;;;5.1;86.1
27358;BME280;14831;50.474;7.616;2022-12-26T18:18:02;98260;;;5.0;84.6
27358;BME280;14831;50.474;7.616;2022-12-26T18:23:04;98260;;;5.0;82.7
27358;BME280;14831;50.474;7.616;2022-12-26T18:28:02;98270;;;4.9;80.9
27358;BME280;14831;50.474;7.616;2022-12-26T18:33:02;98290;;;4.7;83.1
27358;BME280;14831;50.474;7.616;2022-12-26T18:38:02;98290;;;4.7;81.6
27358;BME280;14831;50.474;7.616;2022-12-26T18:43:03;98300;;;4.7;82.6
27358;BME280;14831;50.474;7.616;2022-12-26T18:48:02;98310;;;4.7;81.9
27358;BME280;14831;50.474;7.616;2022-12-26T18:53:02;98320;;;4.8;80.8
27358;BME280;14831;50.474;7.616;2022-12-26T18:58:02;98330;;;4.7;83.3
27358;BME280;14831;50.474;7.616;2022-12-26T19:03:02;98340;;;4.8;83.6
27358;BME280;14831;50.474;7.616;2022-12-26T19:08:02;98350;;;4.7;84.2
27358;BME280;14831;50.474;7.616;2022-12-26T19:13:02;98350;;;4.7;83.6
27358;BME280;14831;50.474;7.616;2022-12-26T19:18:02;98370;;;4.7;82.5
27358;BME280;14831;50.474;7.616;2022-12-26T19:23:02;98380;;;4.7;83.6
27358;BME280;14831;50.474;7.616;2022-12-26T19:28:02;98400;;;4.6;83.3
27358;BME280;14831;50.474;7.616;2022-12-26T19:33:02;98420;;;4.6;83.1
27358;BME280;14831;50.474;7.616;2022-12-26T19:38:02;98430;;;4.4;82.8
27358;BME280;14831;50.474;7.616;2022-12-26T19:43:02;98430;;;4.3;82.8
27358;BME280;14831;50.474;7.616;2022-12-26T19:48:02;98450;;;4.2;83.7
27358;BME280;14831;50.474;7.616;2022-12-26T19:53:02;98460;;;4.2;84.3
27358;BME280;14831;50.474;7.616;2022-12-26T19:58:02;98470;;;4.1;85.5
27358;BME280;14831;50.474;7.616;2022-12-26T20:03:02;98470;;;3.9;83.6
27358;BME280;14831;50.474;7.616;2022-12-26T20:08:02;98470;;;3.8;84.1
27358;BME280;14831;50.474;7.616;2022-12-26T20:13:02;98470;;;3.6;84.6
27358;BME280;14831;50.474;7.616;2022-12-26T20:18:02;98480;;;3.5;84.2
27358;BME280;14831;50.474;7.616;2022-12-26T20:23:02;98500;;;3.4;85.6
27358;BME280;14831;50.474;7.616;2022-12-26T20:28:02;98510;;;3.3;84.7
27358;BME280;14831;50.474;7.616;2022-12-26T20:33:02;98530;;;3.2;85.7
27358;BME280;14831;50.474;7.616;2022-12-26T20:38:02;98540;;;3.2;86.6
27358;BME280;14831;50.474;7.616;2022-12-26T20:43:02;98550;;;3.1;86.7
27358;BME280;14831;50.474;7.616;2022-12-26T20:48:02;98560;;;3.1;86.3
27358;BME280;14831;50.474;7.616;2022-12-26T20:53:02;98580;;;3.0;86.5
27358;BME280;14831;50.474;7.616;2022-12-26T20:58:02;98580;;;3.0;86.9
27358;BME280;14831;50.474;7.616;2022-12-26T21:03:02;98600;;;2.9;86.9
27358;BME280;14831;50.474;7.616;2022-12-26T21:08:02;98600;;;2.8;87.0
27358;BME280;14831;50.474;7.616;2022-12-26T21:13:02;98620;;;2.7;86.2
27358;BME280;14831;50.474;7.616;2022-12-26T21:18:02;98620;;;2.6;86.5
27358;BME280;14831;50.474;7.616;2022-12-26T21:23:02;98620;;;2.5;86.1
27358;BME280;14831;50.474;7.616;2022-12-26T21:28:02;98630;;;2.5;85.0
27358;BME280;14831;50.474;7.616;2022-12-26T21:33:02;98620;;;2.4;83.8
27358;BME280;14831;50.474;7.616;2022-12-26T21:38:02;98630;;;2.4;82.3
27358;BME280;14831;50.474;7.616;2022-12-26T21:43:02;98650;;;2.4;81.6
27358;BME280;14831;50.474;7.616;2022-12-26T21:48:02;98650;;;2.3;82.0
27358;BME280;14831;50.474;7.616;2022-12-26T21:53:02;98650;;;2.2;82.1
27358;BME280;14831;50.474;7.616;2022-12-26T21:58:02;98670;;;2.3;82.0
27358;BME280;14831;50.474;7.616;2022-12-26T22:03:02;98670;;;2.3;82.6
27358;BME280;14831;50.474;7.616;2022-12-26T22:08:02;98670;;;2.2;82.5
27358;BME280;14831;50.474;7.616;2022-12-26T22:13:02;98680;;;2.2;82.4
27358;BME280;14831;50.474;7.616;2022-12-26T22:18:02;98680;;;2.2;82.1
27358;BME280;14831;50.474;7.616;2022-12-26T22:23:02;98680;;;2.2;81.5
27358;BME280;14831;50.474;7.616;2022-12-26T22:28:02;98690;;;2.1;80.9
27358;BME280;14831;50.474;7.616;2022-12-26T22:33:02;98680;;;2.1;80.6
27358;BME280;14831;50.474;7.616;2022-12-26T22:38:02;98690;;;2.1;80.8
27358;BME280;14831;50.474;7.616;2022-12-26T22:43:02;98700;;;2.0;82.0
27358;BME280;14831;50.474;7.616;2022-12-26T22:48:02;98720;;;2.0;81.3
27358;BME280;14831;50.474;7.616;2022-12-26T22:53:02;98720;;;2.1;81.1
27358;BME280;14831;50.474;7.616;2022-12-26T22:58:02;98720;;;2.0;82.0
27358;BME280;14831;50.474;7.616;2022-12-26T23:03:02;98730;;;2.0;82.7
27358;BME280;14831;50.474;7.616;2022-12-26T23:08:02;98730;;;1.9;82.6
27358;BME280;14831;50.474;7.616;2022-12-26T23:13:02;98740;;;1.9;82.6
27358;BME280;14831;50.474;7.616;2022-12-26T23:18:09;98740;;;2.0;82.9
27358;BME280;14831;50.474;7.616;2022-12-26T23:23:02;98750;;;1.9;82.8
27358;BME280;14831;50.474;7.616;2022-12-26T23:28:02;98750;;;1.9;82.6
27358;BME280;14831;50.474;7.616;2022-12-26T23:33:02;98760;;;1.9;82.7
27358;BME280;14831;50.474;7.616;2022-12-26T23:38:02;98760;;;1.8;83.3
27358;BME280;14831;50.474;7.616;2022-12-26T23:43:02;98750;;;1.7;84.1
27358;BME280;14831;50.474;7.616;2022-12-26T23:48:02;98750;;;1.6;84.5
27358;BME280;14831;50.474;7.616;2022-12-26T23:53:02;98770;;;1.6;85.3
27358;BME280;14831;50.474;7.616;2022-12-26T23:58:02;98770;;;1.5;86.6
